Time;durP1;ratioP1;P1;durP2;ratioP2;P2;SDS_P1;SDS_P2;PMS_P1;PMS_P2;Temp;Humidity;BMP_temperature;BMP_pressure;BME280_temperature;BME280_humidity;BME280_pressure;Samples;Min_cycle;Max_cycle;Signal;HPM_P1;HPM_P2
2021/07/09 00:02:41;;;;;;;18.83;7.20;;;20.80;64.90;;;;;;5120107;28;20195;-86
2021/07/09 00:05:07;;;;;;;12.57;6.97;;;20.60;66.00;;;;;;5121276;28;20171;-86
2021/07/09 00:07:33;;;;;;;10.27;6.60;;;20.70;65.10;;;;;;5119164;28;20175;-85
2021/07/09 00:09:59;;;;;;;12.33;6.67;;;20.70;65.30;;;;;;5118085;28;20206;-86
2021/07/09 00:12:25;;;;;;;12.07;7.33;;;20.60;65.40;;;;;;5118916;28;20482;-86
2021/07/09 00:14:50;;;;;;;13.70;7.63;;;20.60;65.70;;;;;;5117881;28;20172;-86
2021/07/09 00:17:16;;;;;;;9.40;6.93;;;20.50;66.10;;;;;;5117546;28;20725;-86
2021/07/09 00:19:43;;;;;;;10.93;7.70;;;20.40;66.20;;;;;;5117680;28;20183;-86
2021/07/09 00:22:09;;;;;;;8.60;6.90;;;20.40;66.30;;;;;;5106695;28;20811;-86
2021/07/09 00:24:36;;;;;;;7.97;6.00;;;20.40;66.20;;;;;;5098829;28;20188;-86
2021/07/09 00:27:03;;;;;;;8.43;6.60;;;20.50;66.00;;;;;;5097378;28;20213;-86
2021/07/09 00:29:29;;;;;;;8.48;5.65;;;20.50;65.70;;;;;;5098389;28;20243;-86
2021/07/09 00:31:56;;;;;;;8.27;5.40;;;20.50;65.10;;;;;;5096551;28;20594;-86
2021/07/09 00:34:21;;;;;;;7.63;4.70;;;20.40;63.50;;;;;;5096903;28;20537;-86
2021/07/09 00:36:47;;;;;;;4.97;4.47;;;20.30;62.80;;;;;;5108716;28;20182;-85
2021/07/09 00:39:13;;;;;;;6.40;4.73;;;20.30;62.40;;;;;;5099862;28;20190;-85
2021/07/09 00:41:39;;;;;;;6.30;4.88;;;20.30;62.20;;;;;;5100512;28;20434;-86
2021/07/09 00:44:06;;;;;;;9.10;4.78;;;20.20;62.10;;;;;;5099847;28;20226;-86
2021/07/09 00:46:38;;;;;;;5.72;5.22;;;20.30;62.20;;;;;;5101102;28;20179;-85
2021/07/09 00:49:06;;;;;;;7.80;3.83;;;20.20;62.30;;;;;;5106554;28;20182;-86
2021/07/09 00:51:31;;;;;;;8.13;4.95;;;20.30;63.30;;;;;;5119291;28;20195;-86
2021/07/09 00:53:57;;;;;;;6.60;4.57;;;20.30;62.70;;;;;;5119114;28;20207;-86
2021/07/09 00:56:24;;;;;;;5.40;4.32;;;20.20;63.60;;;;;;5119790;28;20179;-86
2021/07/09 00:58:51;;;;;;;5.60;4.50;;;20.20;63.20;;;;;;5121141;28;20171;-86
2021/07/09 01:01:17;;;;;;;6.38;5.38;;;20.20;63.60;;;;;;5117269;28;20191;-86
2021/07/09 01:03:43;;;;;;;5.13;4.50;;;20.10;63.80;;;;;;5121593;28;20190;-86
2021/07/09 01:06:11;;;;;;;12.73;5.53;;;20.10;64.10;;;;;;5116991;28;20182;-86
2021/07/09 01:08:36;;;;;;;6.55;4.68;;;20.10;64.20;;;;;;5117923;28;20178;-86
2021/07/09 01:11:02;;;;;;;6.90;5.47;;;20.10;64.50;;;;;;5116935;28;20309;-86
2021/07/09 01:13:28;;;;;;;7.20;5.03;;;20.10;64.70;;;;;;5118237;28;20203;-85
2021/07/09 01:15:54;;;;;;;8.77;5.73;;;20.00;64.80;;;;;;5116753;28;20424;-86
2021/07/09 01:18:20;;;;;;;7.43;5.63;;;20.00;65.10;;;;;;5116830;28;20409;-86
2021/07/09 01:20:46;;;;;;;9.68;4.25;;;19.90;65.30;;;;;;5116229;28;20170;-87
2021/07/09 01:23:15;;;;;;;6.70;5.57;;;19.90;65.60;;;;;;5116765;28;20588;-86
2021/07/09 01:25:41;;;;;;;6.25;5.05;;;19.90;65.80;;;;;;5116908;28;20459;-86
2021/07/09 01:28:08;;;;;;;6.20;5.57;;;19.90;66.00;;;;;;5116614;28;20183;-86
2021/07/09 01:30:36;;;;;;;10.13;5.13;;;19.90;66.20;;;;;;5118283;28;20425;-87
2021/07/09 01:33:02;;;;;;;9.20;5.55;;;19.90;67.00;;;;;;5125556;28;20209;-87
2021/07/09 01:35:29;;;;;;;8.13;5.72;;;19.90;66.30;;;;;;5117936;28;20171;-86
2021/07/09 01:37:59;;;;;;;11.68;5.97;;;19.90;66.40;;;;;;5116517;28;20186;-87
2021/07/09 01:40:25;;;;;;;10.32;5.10;;;19.90;66.50;;;;;;5115955;28;20183;-86
2021/07/09 01:42:52;;;;;;;10.93;5.90;;;19.80;67.70;;;;;;5116362;28;20282;-86
2021/07/09 01:45:17;;;;;;;9.65;5.50;;;19.80;66.80;;;;;;5117222;28;20193;-86
2021/07/09 01:47:43;;;;;;;5.53;5.00;;;19.90;66.90;;;;;;5117697;28;20661;-87
2021/07/09 01:50:09;;;;;;;12.00;5.83;;;19.80;66.90;;;;;;5099326;28;20469;-87
2021/07/09 01:52:35;;;;;;;9.23;5.63;;;19.80;67.00;;;;;;5096910;28;20207;-86
2021/07/09 01:55:04;;;;;;;7.87;6.23;;;19.80;67.00;;;;;;5095635;28;20237;-87
2021/07/09 01:57:30;;;;;;;12.57;7.00;;;19.70;67.20;;;;;;5096680;28;20410;-86
2021/07/09 01:59:57;;;;;;;7.90;5.00;;;19.70;67.20;;;;;;5096752;28;20179;-86
2021/07/09 02:02:23;;;;;;;10.05;6.10;;;19.70;67.20;;;;;;5094827;28;20438;-86
2021/07/09 02:04:54;;;;;;;10.75;6.10;;;19.70;67.10;;;;;;5096813;28;20313;-86
2021/07/09 02:07:21;;;;;;;7.60;5.75;;;19.70;67.10;;;;;;5096538;28;20251;-86
2021/07/09 02:09:49;;;;;;;10.25;7.10;;;19.60;67.10;;;;;;5096215;28;20188;-87
2021/07/09 02:12:17;;;;;;;11.85;7.45;;;19.50;67.40;;;;;;5094561;28;20210;-86
2021/07/09 02:14:43;;;;;;;14.38;7.85;;;19.60;67.50;;;;;;5095022;28;20264;-87
2021/07/09 02:17:15;;;;;;;12.70;7.03;;;19.60;67.60;;;;;;5095213;28;20172;-86
2021/07/09 02:19:42;;;;;;;15.82;8.10;;;19.50;67.80;;;;;;5095509;28;20425;-86
2021/07/09 02:22:11;;;;;;;13.45;8.40;;;19.50;68.00;;;;;;5095157;28;20203;-86
2021/07/09 02:24:38;;;;;;;13.10;7.47;;;19.50;68.10;;;;;;5098073;28;20168;-86
2021/07/09 02:27:06;;;;;;;14.50;8.90;;;19.50;68.20;;;;;;5110486;28;20680;-87
2021/07/09 02:29:33;;;;;;;12.73;7.95;;;19.40;68.30;;;;;;5103324;28;20234;-86
2021/07/09 02:32:00;;;;;;;17.42;10.13;;;19.50;68.60;;;;;;5101341;28;20245;-86
2021/07/09 02:34:29;;;;;;;11.98;8.70;;;19.40;68.70;;;;;;5098849;28;20204;-87
2021/07/09 02:36:57;;;;;;;12.70;8.23;;;19.40;68.90;;;;;;5108639;28;20188;-86
2021/07/09 02:39:27;;;;;;;14.60;8.45;;;19.30;69.10;;;;;;5114628;28;20194;-86
2021/07/09 02:41:57;;;;;;;13.55;9.40;;;19.30;69.30;;;;;;5115034;28;20244;-86
2021/07/09 02:44:23;;;;;;;14.55;8.70;;;19.30;69.60;;;;;;5116015;28;20184;-86
2021/07/09 02:46:50;;;;;;;12.82;9.27;;;19.30;69.80;;;;;;5116071;28;20253;-86
2021/07/09 02:49:16;;;;;;;13.32;9.23;;;19.20;69.80;;;;;;5121589;28;20175;-86
2021/07/09 02:51:43;;;;;;;17.03;8.67;;;19.20;69.90;;;;;;5134458;28;20210;-87
2021/07/09 02:54:09;;;;;;;16.67;7.88;;;19.20;69.80;;;;;;5135129;28;20520;-86
2021/07/09 02:56:35;;;;;;;14.53;9.27;;;19.20;69.50;;;;;;5121421;28;20627;-86
2021/07/09 02:59:01;;;;;;;15.43;7.80;;;19.20;69.30;;;;;;5115083;28;20409;-86
2021/07/09 03:01:27;;;;;;;17.70;9.27;;;19.10;69.50;;;;;;5094718;28;20704;-86
2021/07/09 03:03:56;;;;;;;11.90;7.20;;;19.10;69.70;;;;;;5095533;28;20673;-86
2021/07/09 03:06:22;;;;;;;15.10;8.20;;;19.00;69.60;;;;;;5077985;28;20525;-86
2021/07/09 03:08:48;;;;;;;21.63;7.95;;;19.00;69.80;;;;;;5094767;28;20179;-86
2021/07/09 03:11:15;;;;;;;15.05;8.68;;;19.00;70.00;;;;;;5094540;28;20223;-86
2021/07/09 03:13:41;;;;;;;15.52;8.07;;;18.90;69.90;;;;;;5094829;28;20203;-86
2021/07/09 03:16:07;;;;;;;15.10;8.15;;;19.00;69.90;;;;;;5096269;28;20172;-86
2021/07/09 03:18:32;;;;;;;12.43;7.57;;;19.10;69.70;;;;;;5096906;28;20310;-87
2021/07/09 03:20:58;;;;;;;12.77;8.30;;;19.10;69.60;;;;;;5100192;28;20233;-87
2021/07/09 03:23:24;;;;;;;19.40;9.40;;;19.10;69.50;;;;;;5105446;28;20329;-86
2021/07/09 03:25:50;;;;;;;11.90;7.60;;;19.10;69.30;;;;;;5098302;28;20234;-86
2021/07/09 03:28:16;;;;;;;11.70;8.63;;;19.10;69.20;;;;;;5096086;28;20230;-87
2021/07/09 03:30:42;;;;;;;14.20;8.15;;;19.10;69.20;;;;;;5096385;28;20180;-86
2021/07/09 03:33:09;;;;;;;13.18;7.45;;;19.10;69.30;;;;;;5096995;28;20223;-86
2021/07/09 03:35:36;;;;;;;11.32;8.23;;;19.20;69.20;;;;;;5099112;28;20180;-86
2021/07/09 03:38:02;;;;;;;14.27;8.52;;;19.20;69.10;;;;;;5096379;28;20182;-87
2021/07/09 03:40:28;;;;;;;15.38;8.65;;;19.20;69.10;;;;;;5098164;28;20183;-87
2021/07/09 03:42:53;;;;;;;13.67;8.43;;;19.10;69.00;;;;;;5100091;28;20195;-86
2021/07/09 03:45:19;;;;;;;14.40;8.70;;;19.00;69.20;;;;;;5098171;28;20504;-86
2021/07/09 03:47:46;;;;;;;19.30;10.40;;;19.00;69.30;;;;;;5099154;28;20228;-85
2021/07/09 03:50:13;;;;;;;13.60;8.80;;;19.00;69.40;;;;;;5098862;28;20493;-86
2021/07/09 03:52:39;;;;;;;16.67;8.77;;;19.00;69.70;;;;;;5095937;28;20207;-86
2021/07/09 03:55:06;;;;;;;14.93;9.50;;;18.90;69.50;;;;;;5096280;28;20229;-86
2021/07/09 03:57:32;;;;;;;20.50;9.88;;;18.80;69.70;;;;;;5094832;28;20195;-86
2021/07/09 03:59:58;;;;;;;16.37;9.77;;;18.80;70.00;;;;;;5088540;28;20179;-86
2021/07/09 04:02:23;;;;;;;19.13;9.13;;;18.80;70.10;;;;;;5075020;28;20458;-86
2021/07/09 04:04:49;;;;;;;15.83;9.43;;;18.70;70.40;;;;;;5078004;28;20259;-86
2021/07/09 04:07:15;;;;;;;20.10;10.30;;;18.70;70.50;;;;;;5074922;28;20282;-85
2021/07/09 04:09:41;;;;;;;20.57;10.90;;;18.70;70.70;;;;;;5074174;28;20196;-86
2021/07/09 04:12:07;;;;;;;16.70;10.33;;;18.70;70.70;;;;;;5074283;28;20215;-85
2021/07/09 04:14:33;;;;;;;13.25;9.40;;;18.80;70.50;;;;;;5074478;28;20214;-86
2021/07/09 04:16:58;;;;;;;18.27;9.68;;;18.90;70.70;;;;;;5083941;28;20173;-86
2021/07/09 04:19:24;;;;;;;15.80;11.00;;;18.90;70.50;;;;;;5075005;28;20179;-86
2021/07/09 04:21:50;;;;;;;17.97;9.90;;;19.00;70.20;;;;;;5075155;28;20185;-86
2021/07/09 04:24:16;;;;;;;14.77;9.80;;;19.00;69.80;;;;;;5074745;28;20181;-86
2021/07/09 04:26:42;;;;;;;16.77;10.17;;;19.00;69.50;;;;;;5074888;28;20429;-85
2021/07/09 04:29:08;;;;;;;15.68;9.90;;;19.00;69.30;;;;;;5075228;28;20826;-86
2021/07/09 04:31:34;;;;;;;13.90;8.17;;;19.10;69.30;;;;;;5076093;28;20205;-86
2021/07/09 04:34:00;;;;;;;17.40;9.27;;;19.10;69.10;;;;;;5077626;28;20458;-85
2021/07/09 04:36:26;;;;;;;17.93;9.50;;;19.10;69.00;;;;;;5084655;28;20500;-86
2021/07/09 04:38:51;;;;;;;17.60;10.50;;;19.10;69.10;;;;;;5115841;28;20416;-86
2021/07/09 04:41:17;;;;;;;20.43;10.50;;;19.10;69.00;;;;;;5117646;28;20195;-86
2021/07/09 04:43:43;;;;;;;20.63;11.60;;;19.20;69.00;;;;;;5119436;28;20175;-86
2021/07/09 04:46:09;;;;;;;17.77;10.80;;;19.20;68.80;;;;;;5118412;28;20171;-86
2021/07/09 04:48:35;;;;;;;18.03;11.00;;;19.20;68.80;;;;;;5114546;28;20266;-86
2021/07/09 04:51:03;;;;;;;19.48;11.52;;;19.10;69.00;;;;;;5097321;28;20433;-86
2021/07/09 04:53:30;;;;;;;18.88;11.70;;;19.20;69.10;;;;;;5099060;28;20203;-86
2021/07/09 04:55:56;;;;;;;21.08;11.48;;;19.10;69.10;;;;;;5098109;28;20603;-86
2021/07/09 04:58:22;;;;;;;22.23;10.93;;;19.20;69.10;;;;;;5097421;28;20184;-86
2021/07/09 05:00:48;;;;;;;30.20;10.95;;;19.20;69.10;;;;;;5093781;28;20646;-85
2021/07/09 05:03:14;;;;;;;14.35;10.65;;;19.20;69.20;;;;;;5086855;28;20176;-86
2021/07/09 05:05:40;;;;;;;19.87;11.77;;;19.20;69.20;;;;;;5088128;28;20241;-86
2021/07/09 05:08:06;;;;;;;20.60;12.02;;;19.20;69.20;;;;;;5097891;28;20176;-85
2021/07/09 05:10:38;;;;;;;20.57;12.10;;;19.20;69.10;;;;;;5083420;28;20208;-86
2021/07/09 05:13:05;;;;;;;23.35;11.68;;;19.20;69.10;;;;;;5082067;28;20473;-85
2021/07/09 05:15:31;;;;;;;22.23;12.13;;;19.30;69.20;;;;;;5078831;28;20226;-85
2021/07/09 05:17:57;;;;;;;20.70;12.85;;;19.30;68.80;;;;;;5085058;28;20164;-86
2021/07/09 05:20:23;;;;;;;27.03;12.80;;;19.50;68.80;;;;;;5098524;28;20175;-86
2021/07/09 05:22:49;;;;;;;22.27;12.00;;;19.80;68.00;;;;;;5097261;28;20657;-86
2021/07/09 05:25:14;;;;;;;22.17;11.53;;;19.90;67.10;;;;;;5096940;28;20270;-86
2021/07/09 05:27:40;;;;;;;25.90;12.40;;;20.00;66.80;;;;;;5097750;28;20273;-86
2021/07/09 05:30:06;;;;;;;22.60;13.33;;;20.10;66.70;;;;;;5097165;28;20176;-86
2021/07/09 05:32:33;;;;;;;18.98;11.85;;;20.10;66.60;;;;;;5096302;28;20195;-86
2021/07/09 05:34:59;;;;;;;22.25;12.77;;;20.20;66.40;;;;;;5092077;28;20176;-85
2021/07/09 05:37:25;;;;;;;24.77;11.67;;;20.10;65.80;;;;;;5076815;28;20658;-86
2021/07/09 05:39:51;;;;;;;20.47;11.70;;;20.20;65.50;;;;;;5076867;28;20415;-86
2021/07/09 05:42:17;;;;;;;18.97;13.33;;;20.60;65.20;;;;;;5077325;28;20268;-86
2021/07/09 05:44:46;;;;;;;17.03;10.40;;;21.10;63.70;;;;;;5076269;28;20463;-85
2021/07/09 05:47:12;;;;;;;17.40;10.23;;;21.80;61.90;;;;;;5076697;28;20414;-86
2021/07/09 05:49:38;;;;;;;16.03;9.80;;;22.50;59.30;;;;;;5078614;28;20937;-86
2021/07/09 05:52:05;;;;;;;17.90;10.97;;;22.80;56.80;;;;;;5076693;28;20444;-86
2021/07/09 05:54:31;;;;;;;20.10;10.30;;;23.20;55.40;;;;;;5076873;28;20534;-86
2021/07/09 05:56:56;;;;;;;15.20;10.13;;;23.40;54.60;;;;;;5077429;28;20990;-86
2021/07/09 05:59:22;;;;;;;18.43;9.97;;;23.20;54.60;;;;;;5078129;28;20177;-85
2021/07/09 06:01:48;;;;;;;19.10;10.33;;;23.20;55.40;;;;;;5077322;28;20729;-87
2021/07/09 06:04:17;;;;;;;22.23;11.50;;;23.70;54.70;;;;;;5079205;28;20234;-86
2021/07/09 06:06:43;;;;;;;20.63;12.40;;;24.60;53.20;;;;;;5083618;28;20792;-86
2021/07/09 06:09:09;;;;;;;22.20;13.93;;;25.40;50.70;;;;;;5083966;28;20473;-87
2021/07/09 06:11:36;;;;;;;21.77;13.60;;;26.10;48.90;;;;;;5098814;28;20463;-87
2021/07/09 06:14:02;;;;;;;23.30;14.90;;;26.60;46.40;;;;;;5097025;28;20461;-87
2021/07/09 06:16:28;;;;;;;25.63;15.97;;;26.60;45.40;;;;;;5096063;28;20409;-86
2021/07/09 06:18:53;;;;;;;21.83;15.70;;;26.90;44.70;;;;;;5097350;28;20418;-85
2021/07/09 06:21:19;;;;;;;21.47;13.23;;;26.70;44.60;;;;;;5098241;28;20279;-87
2021/07/09 06:23:45;;;;;;;22.67;13.67;;;27.10;44.50;;;;;;5095153;28;20237;-86
2021/07/09 06:26:11;;;;;;;25.40;14.37;;;27.30;44.10;;;;;;5094735;28;20725;-86
2021/07/09 06:28:37;;;;;;;23.70;15.50;;;27.10;44.30;;;;;;5094476;28;20267;-86
2021/07/09 06:31:03;;;;;;;30.37;15.60;;;26.60;44.60;;;;;;5099918;28;20192;-86
2021/07/09 06:33:29;;;;;;;23.37;15.50;;;26.00;46.10;;;;;;5090457;28;20461;-85
2021/07/09 06:35:55;;;;;;;28.80;15.10;;;25.50;47.40;;;;;;5106805;28;20413;-86
2021/07/09 06:38:22;;;;;;;19.57;12.73;;;25.20;48.70;;;;;;5105181;28;20414;-85
2021/07/09 06:40:47;;;;;;;19.13;13.30;;;24.80;49.40;;;;;;5105781;28;20441;-86
2021/07/09 06:43:13;;;;;;;23.10;14.00;;;24.40;50.10;;;;;;5100797;28;20422;-86
2021/07/09 06:45:40;;;;;;;19.03;12.30;;;24.30;51.00;;;;;;5095312;28;20179;-86
2021/07/09 06:48:07;;;;;;;16.83;12.90;;;24.20;51.20;;;;;;5095336;28;20183;-86
2021/07/09 06:50:36;;;;;;;22.43;12.10;;;24.40;51.20;;;;;;5096467;28;20901;-87
2021/07/09 06:53:03;;;;;;;18.83;12.60;;;24.90;51.30;;;;;;5094237;28;20461;-86
2021/07/09 06:55:29;;;;;;;18.10;12.70;;;25.20;50.00;;;;;;5095802;28;20456;-86
2021/07/09 06:57:54;;;;;;;18.50;12.30;;;25.40;49.30;;;;;;5095235;28;20808;-87
2021/07/09 07:00:21;;;;;;;21.23;13.70;;;25.40;48.90;;;;;;5095502;28;20172;-86
2021/07/09 07:02:48;;;;;;;24.60;17.23;;;25.10;49.50;;;;;;5099477;28;20280;-86
2021/07/09 07:05:15;;;;;;;20.50;13.93;;;24.80;49.30;;;;;;5096729;28;20413;-86
2021/07/09 07:07:41;;;;;;;21.87;12.70;;;24.80;50.20;;;;;;5095478;28;20757;-86
2021/07/09 07:10:09;;;;;;;25.47;13.23;;;25.20;50.10;;;;;;5094711;28;20467;-86
2021/07/09 07:12:34;;;;;;;18.30;13.70;;;25.10;50.00;;;;;;5093962;28;20434;-86
2021/07/09 07:15:02;;;;;;;22.00;14.33;;;24.90;50.30;;;;;;5095856;28;20770;-86
2021/07/09 07:17:28;;;;;;;20.53;12.90;;;24.80;50.70;;;;;;5093575;28;20199;-86
2021/07/09 07:19:53;;;;;;;16.10;11.90;;;25.10;50.30;;;;;;5095943;28;20822;-86
2021/07/09 07:22:19;;;;;;;19.90;12.13;;;25.00;49.60;;;;;;5094111;28;20524;-86
2021/07/09 07:24:48;;;;;;;18.00;12.63;;;24.90;49.50;;;;;;5095207;28;20172;-87
2021/07/09 07:27:15;;;;;;;17.80;13.03;;;24.50;50.20;;;;;;5096612;28;20410;-87
2021/07/09 07:29:41;;;;;;;19.77;12.30;;;24.50;51.20;;;;;;5094409;28;20414;-87
2021/07/09 07:32:07;;;;;;;14.03;11.50;;;24.30;51.80;;;;;;5094870;28;20417;-86
2021/07/09 07:34:32;;;;;;;19.13;13.20;;;24.10;52.50;;;;;;5093727;28;20631;-86
2021/07/09 07:36:58;;;;;;;21.20;12.33;;;24.00;53.40;;;;;;5094216;28;20638;-87
2021/07/09 07:39:24;;;;;;;17.83;12.07;;;23.70;53.60;;;;;;5093911;28;20241;-86
2021/07/09 07:41:50;;;;;;;14.33;9.80;;;23.60;54.00;;;;;;5095074;28;20195;-86
2021/07/09 07:44:16;;;;;;;14.73;9.57;;;23.80;54.10;;;;;;5094074;28;20274;-86
2021/07/09 07:46:41;;;;;;;14.10;10.03;;;23.90;53.40;;;;;;5095300;28;20199;-85
2021/07/09 07:49:07;;;;;;;16.23;10.30;;;24.20;52.60;;;;;;5094235;28;20190;-86
2021/07/09 07:51:33;;;;;;;14.43;10.43;;;24.40;51.60;;;;;;5093758;28;20195;-86
2021/07/09 07:53:59;;;;;;;14.10;9.67;;;24.60;51.00;;;;;;5095243;28;20216;-86
2021/07/09 07:56:24;;;;;;;20.27;9.73;;;24.60;50.50;;;;;;5101829;28;20530;-86
2021/07/09 07:58:52;;;;;;;13.47;9.70;;;24.30;51.10;;;;;;5095606;28;20182;-86
2021/07/09 08:01:18;;;;;;;14.40;9.70;;;24.50;51.20;;;;;;5093653;28;20191;-86
2021/07/09 08:03:45;;;;;;;13.93;9.53;;;24.60;51.10;;;;;;5093701;28;20424;-86
2021/07/09 08:06:11;;;;;;;12.73;9.10;;;24.60;51.40;;;;;;5094069;28;20873;-86
2021/07/09 08:08:38;;;;;;;10.60;8.50;;;24.80;50.60;;;;;;5095453;28;20414;-86
2021/07/09 08:11:05;;;;;;;15.43;7.47;;;24.70;49.90;;;;;;5114981;28;20460;-86
2021/07/09 08:13:31;;;;;;;12.10;8.57;;;24.30;49.50;;;;;;5115082;28;20525;-86
2021/07/09 08:15:56;;;;;;;16.60;9.60;;;23.50;50.50;;;;;;5132740;28;20404;-86
2021/07/09 08:18:22;;;;;;;11.97;7.90;;;22.70;53.00;;;;;;5119233;28;20413;-85
2021/07/09 08:20:48;;;;;;;11.70;8.70;;;22.30;54.60;;;;;;5118782;28;20182;-86
2021/07/09 08:23:14;;;;;;;14.60;9.40;;;22.40;55.90;;;;;;5118554;28;20420;-85
2021/07/09 08:25:39;;;;;;;12.70;8.60;;;22.80;55.90;;;;;;5118599;28;20175;-86
2021/07/09 08:28:05;;;;;;;13.50;7.63;;;23.00;55.80;;;;;;5118936;28;20179;-86
2021/07/09 08:30:31;;;;;;;11.00;7.40;;;23.20;55.40;;;;;;5118871;28;20634;-86
2021/07/09 08:32:57;;;;;;;11.37;8.00;;;23.30;54.50;;;;;;5120424;28;20537;-86
2021/07/09 08:35:23;;;;;;;11.07;7.97;;;23.50;53.30;;;;;;5121523;28;20178;-86
2021/07/09 08:37:48;;;;;;;13.00;8.03;;;23.40;52.30;;;;;;5121604;28;20175;-86
2021/07/09 08:40:15;;;;;;;11.00;6.80;;;23.10;52.90;;;;;;5121167;28;20413;-86
2021/07/09 08:42:41;;;;;;;11.30;6.40;;;23.20;53.70;;;;;;5123822;28;20431;-86
2021/07/09 08:45:08;;;;;;;12.60;6.90;;;23.40;53.70;;;;;;5122464;28;20417;-86
2021/07/09 08:47:35;;;;;;;9.43;6.50;;;23.50;53.00;;;;;;5114875;28;20176;-86
2021/07/09 08:50:06;;;;;;;10.60;5.90;;;23.50;52.60;;;;;;5109847;28;20406;-86
2021/07/09 08:52:36;;;;;;;11.90;6.67;;;23.60;51.50;;;;;;5114231;28;20441;-85
2021/07/09 08:55:11;;;;;;;7.80;5.80;;;23.70;52.00;;;;;;5120262;28;20425;-86
2021/07/09 08:57:40;;;;;;;11.03;6.77;;;23.90;52.00;;;;;;5119034;28;20417;-85
2021/07/09 09:00:26;;;;;;;8.70;7.53;;;23.70;51.50;;;;;;5119939;28;20417;-86
2021/07/09 09:02:53;;;;;;;11.83;5.37;;;23.60;51.60;;;;;;5117970;28;20445;-85
2021/07/09 09:05:22;;;;;;;7.53;6.03;;;23.80;51.50;;;;;;5118565;28;20421;-86
2021/07/09 09:08:07;;;;;;;10.60;6.80;;;24.00;50.40;;;;;;5120047;28;20437;-85
2021/07/09 09:10:48;;;;;;;11.20;6.70;;;23.70;50.90;;;;;;5115019;28;20503;-86
2021/07/09 09:13:19;;;;;;;8.30;6.10;;;24.00;51.40;;;;;;5096622;28;20457;-86
2021/07/09 09:15:57;;;;;;;12.57;6.80;;;24.50;50.60;;;;;;5098096;28;20466;-86
2021/07/09 09:18:32;;;;;;;11.70;8.43;;;24.60;49.90;;;;;;5103852;28;20418;-85
2021/07/09 09:21:07;;;;;;;6.50;5.80;;;24.60;49.40;;;;;;5104809;28;20437;-86
2021/07/09 09:23:35;;;;;;;9.73;7.60;;;24.90;48.90;;;;;;5096243;28;20425;-86
2021/07/09 09:26:03;;;;;;;9.73;6.90;;;25.00;48.50;;;;;;5095440;28;20440;-86
2021/07/09 09:28:30;;;;;;;14.53;7.93;;;25.00;48.60;;;;;;5097157;28;20889;-85
2021/07/09 09:30:57;;;;;;;12.23;7.73;;;25.00;48.80;;;;;;5095997;28;20433;-86
2021/07/09 09:33:32;;;;;;;8.40;6.30;;;25.00;48.70;;;;;;5095735;28;20453;-86
2021/07/09 09:35:58;;;;;;;8.00;6.13;;;25.10;47.20;;;;;;5095929;28;20829;-86
2021/07/09 09:38:29;;;;;;;9.67;5.70;;;25.20;46.30;;;;;;5095875;28;20452;-86
2021/07/09 09:40:57;;;;;;;8.77;5.70;;;25.30;45.70;;;;;;5095332;28;20418;-86
2021/07/09 09:43:25;;;;;;;7.80;5.57;;;25.20;46.40;;;;;;5097261;28;20785;-87
2021/07/09 09:46:06;;;;;;;9.20;6.33;;;25.10;47.50;;;;;;5099883;28;20418;-87
2021/07/09 09:48:46;;;;;;;8.67;6.33;;;24.90;47.70;;;;;;5096127;28;20488;-86
2021/07/09 09:51:23;;;;;;;6.57;5.70;;;24.90;48.10;;;;;;5094750;28;20473;-86
2021/07/09 09:53:58;;;;;;;9.27;6.00;;;24.60;48.00;;;;;;5095497;28;20540;-86
2021/07/09 09:56:36;;;;;;;6.10;5.10;;;24.60;48.10;;;;;;5095609;28;20429;-87
2021/07/09 09:59:22;;;;;;;6.97;6.27;;;24.90;47.10;;;;;;5095540;28;20417;-86
2021/07/09 10:02:08;;;;;;;6.03;5.43;;;25.20;46.60;;;;;;5094844;28;20444;-86
2021/07/09 10:04:34;;;;;;;6.47;4.70;;;25.30;46.50;;;;;;5095217;28;20578;-87
2021/07/09 10:07:01;;;;;;;6.93;5.10;;;25.40;46.30;;;;;;5096515;28;20410;-86
2021/07/09 10:09:28;;;;;;;8.13;5.30;;;25.60;45.50;;;;;;5104964;28;20811;-86
2021/07/09 10:11:55;;;;;;;6.73;5.23;;;25.80;44.60;;;;;;5116464;28;20460;-86
2021/07/09 10:14:28;;;;;;;9.30;6.03;;;26.00;43.90;;;;;;5116766;28;20799;-86
2021/07/09 10:17:02;;;;;;;9.07;8.10;;;26.00;43.30;;;;;;5117297;28;20409;-87
2021/07/09 10:19:40;;;;;;;7.77;6.07;;;26.00;43.60;;;;;;5115608;28;20418;-87
2021/07/09 10:22:06;;;;;;;7.93;5.17;;;26.10;44.00;;;;;;5115458;28;20441;-87
2021/07/09 10:24:34;;;;;;;13.00;5.33;;;26.00;44.30;;;;;;5107735;28;20437;-87
2021/07/09 10:27:02;;;;;;;5.20;4.70;;;25.80;43.90;;;;;;5096027;28;20492;-86
2021/07/09 10:29:33;;;;;;;8.47;5.17;;;26.10;44.20;;;;;;5094290;28;20423;-86
2021/07/09 10:32:01;;;;;;;9.03;6.63;;;25.80;43.20;;;;;;5093811;28;20517;-87
2021/07/09 10:34:35;;;;;;;12.23;5.50;;;25.40;43.80;;;;;;5094325;28;20462;-87
2021/07/09 10:37:06;;;;;;;8.70;6.30;;;25.40;44.50;;;;;;5094182;28;20413;-86
2021/07/09 10:39:36;;;;;;;8.33;5.10;;;25.40;44.40;;;;;;5094613;28;20946;-87
2021/07/09 10:42:27;;;;;;;5.80;5.23;;;25.60;44.50;;;;;;5101287;28;20445;-87
2021/07/09 10:45:01;;;;;;;8.10;6.60;;;25.30;44.90;;;;;;5096145;28;20406;-86
2021/07/09 10:47:42;;;;;;;8.10;5.67;;;25.30;45.30;;;;;;5096732;28;20505;-86
2021/07/09 10:50:29;;;;;;;8.27;5.43;;;25.30;45.50;;;;;;5097870;28;20401;-87
2021/07/09 10:52:59;;;;;;;9.30;6.13;;;25.10;45.70;;;;;;5076879;28;20465;-86
2021/07/09 10:55:25;;;;;;;12.03;5.97;;;25.00;46.00;;;;;;5096221;28;20449;-87
2021/07/09 10:58:09;;;;;;;7.03;5.50;;;25.20;46.90;;;;;;5097035;28;20406;-86
2021/07/09 11:00:41;;;;;;;7.30;5.80;;;25.20;45.70;;;;;;5094013;28;20234;-87
2021/07/09 11:03:09;;;;;;;8.90;5.60;;;25.60;45.10;;;;;;5096664;28;20441;-86
2021/07/09 11:05:50;;;;;;;9.00;5.90;;;25.80;44.70;;;;;;5095147;28;20428;-87
2021/07/09 11:08:34;;;;;;;7.30;5.90;;;26.10;44.60;;;;;;5095901;28;20422;-87
2021/07/09 11:11:13;;;;;;;12.43;5.83;;;25.80;44.30;;;;;;5075239;28;20458;-87
2021/07/09 11:13:49;;;;;;;5.90;5.30;;;25.60;44.50;;;;;;5073433;28;20528;-86
2021/07/09 11:16:32;;;;;;;5.90;5.40;;;25.40;45.10;;;;;;5111915;27;20546;-85
2021/07/09 11:19:03;;;;;;;7.07;5.83;;;25.50;45.50;;;;;;5128729;28;20427;-86
2021/07/09 11:21:29;;;;;;;8.70;6.37;;;25.60;45.90;;;;;;5112504;28;20861;-86
2021/07/09 11:24:17;;;;;;;12.33;6.47;;;25.70;45.60;;;;;;5111454;28;20414;-86
2021/07/09 11:27:04;;;;;;;7.37;5.53;;;25.90;44.80;;;;;;5111224;28;20291;-85
2021/07/09 11:29:35;;;;;;;9.50;6.13;;;26.30;44.00;;;;;;5112362;28;20966;-86
2021/07/09 11:32:04;;;;;;;6.47;5.47;;;26.40;43.40;;;;;;5111121;28;20459;-85
2021/07/09 11:34:37;;;;;;;15.67;6.00;;;26.10;44.10;;;;;;5110673;28;20463;-86
2021/07/09 11:37:07;;;;;;;5.90;5.40;;;26.10;44.80;;;;;;5114116;28;20763;-86
2021/07/09 11:39:35;;;;;;;8.33;5.73;;;26.20;44.60;;;;;;5112817;28;20445;-86
2021/07/09 11:42:05;;;;;;;6.20;5.20;;;26.10;44.70;;;;;;5110536;28;20444;-86
2021/07/09 11:44:44;;;;;;;9.93;6.17;;;26.00;45.00;;;;;;5110522;28;20422;-86
2021/07/09 11:47:16;;;;;;;7.10;6.10;;;25.80;45.00;;;;;;5110980;28;20421;-86
2021/07/09 11:49:53;;;;;;;7.43;6.17;;;25.80;45.60;;;;;;5111120;28;20759;-86
2021/07/09 11:52:30;;;;;;;8.77;6.90;;;26.10;45.60;;;;;;5110258;28;20477;-86
2021/07/09 11:55:01;;;;;;;7.90;6.27;;;26.30;44.80;;;;;;5110643;28;20452;-86
2021/07/09 11:57:29;;;;;;;11.40;6.33;;;26.10;45.20;;;;;;5111097;28;20708;-86
2021/07/09 11:59:56;;;;;;;8.10;5.83;;;26.20;44.30;;;;;;5112173;28;20509;-86
2021/07/09 12:02:27;;;;;;;10.30;6.77;;;26.40;44.10;;;;;;5109857;28;20444;-86
2021/07/09 12:05:01;;;;;;;10.00;6.70;;;26.60;44.60;;;;;;5111205;28;20422;-86
2021/07/09 12:07:33;;;;;;;11.37;6.00;;;26.30;43.90;;;;;;5111094;28;20487;-86
2021/07/09 12:10:04;;;;;;;8.33;5.50;;;25.90;44.50;;;;;;5111254;28;20426;-85
2021/07/09 12:12:42;;;;;;;10.87;6.43;;;25.90;45.30;;;;;;5110154;28;20453;-86
2021/07/09 12:15:19;;;;;;;11.20;7.73;;;25.70;46.30;;;;;;5111841;28;20849;-86
2021/07/09 12:17:48;;;;;;;9.43;8.43;;;25.30;47.00;;;;;;5110621;28;20926;-86
2021/07/09 12:20:21;;;;;;;11.83;8.50;;;25.40;47.30;;;;;;5110671;28;20417;-86
2021/07/09 12:22:53;;;;;;;8.60;7.70;;;24.90;47.90;;;;;;5109765;28;20878;-86
2021/07/09 12:25:24;;;;;;;17.03;8.50;;;24.60;49.00;;;;;;5110174;28;20424;-85
2021/07/09 12:27:53;;;;;;;7.80;6.27;;;24.20;50.00;;;;;;5096687;28;20429;-86
2021/07/09 12:30:21;;;;;;;7.47;6.50;;;24.40;49.80;;;;;;5096279;28;20470;-86
2021/07/09 12:32:48;;;;;;;9.30;6.67;;;24.80;50.00;;;;;;5098873;28;20448;-86
2021/07/09 12:35:15;;;;;;;10.70;6.93;;;25.20;48.60;;;;;;5096777;28;20976;-86
2021/07/09 12:37:42;;;;;;;8.60;6.10;;;25.60;46.50;;;;;;5096422;28;20439;-86
2021/07/09 12:40:17;;;;;;;10.10;6.87;;;25.90;45.80;;;;;;5096962;28;20423;-85
2021/07/09 12:42:45;;;;;;;9.90;6.30;;;26.00;45.50;;;;;;5095976;28;20516;-86
2021/07/09 12:45:11;;;;;;;7.80;6.97;;;25.80;46.60;;;;;;5095892;28;20453;-86